createdAt,value
2023-01-20T00:00:27.597Z,1.23
2023-01-20T00:05:30.906Z,1.42
2023-01-20T00:10:35.541Z,1.50
2023-01-20T00:15:38.796Z,1.40
2023-01-20T00:20:42.046Z,1.50
2023-01-20T00:25:46.672Z,1.30
2023-01-20T00:30:50.040Z,1.65
2023-01-20T00:35:53.331Z,1.40
2023-01-20T00:40:57.996Z,1.40
2023-01-20T00:46:01.402Z,2.13
2023-01-20T00:51:05.951Z,1.48
2023-01-20T00:56:10.711Z,1.25
2023-01-20T01:01:14.668Z,1.50
2023-01-20T01:06:19.416Z,1.88
2023-01-20T01:11:24.066Z,1.60
2023-01-20T01:16:27.442Z,1.80
2023-01-20T01:21:30.752Z,1.40
2023-01-20T01:26:35.623Z,1.50
2023-01-20T01:31:39.222Z,1.85
2023-01-20T01:36:42.568Z,1.48
2023-01-20T01:41:47.262Z,1.63
2023-01-20T01:46:50.512Z,1.63
2023-01-20T01:51:59.885Z,1.35
2023-01-20T01:57:05.304Z,1.48
2023-01-20T02:02:08.617Z,1.80
2023-01-20T02:07:15.941Z,1.38
2023-01-20T02:12:23.826Z,1.50
2023-01-20T02:17:30.048Z,1.73
2023-01-20T02:22:44.247Z,1.30
2023-01-20T02:28:18.871Z,1.65
2023-01-20T02:33:29.605Z,1.90
2023-01-20T02:38:42.329Z,1.40
2023-01-20T02:43:49.889Z,1.70
2023-01-20T02:49:01.815Z,1.60
2023-01-20T02:54:09.901Z,1.30
2023-01-20T02:59:16.365Z,1.73
2023-01-20T03:04:25.595Z,1.73
2023-01-20T03:09:32.654Z,1.85
2023-01-20T03:14:35.822Z,1.60
2023-01-20T03:19:40.500Z,1.60
2023-01-20T03:24:45.186Z,1.30
2023-01-20T03:29:48.301Z,1.80
2023-01-20T03:35:08.946Z,1.50
2023-01-20T03:40:14.397Z,1.67
2023-01-20T03:45:23.658Z,1.70
2023-01-20T03:50:37.661Z,1.40
2023-01-20T03:55:47.704Z,1.23
2023-01-20T04:00:53.314Z,1.58
2023-01-20T04:05:59.533Z,1.20
2023-01-20T04:11:05.856Z,1.10
2023-01-20T04:16:14.641Z,1.20
2023-01-20T04:21:26.062Z,1.10
2023-01-20T04:26:29.218Z,1.25
2023-01-20T04:31:32.375Z,1.30
2023-01-20T04:36:36.949Z,1.50
2023-01-20T04:41:40.117Z,1.33
2023-01-20T04:46:43.309Z,1.50
2023-01-20T04:51:47.846Z,1.08
2023-01-20T04:56:51.022Z,1.90
2023-01-20T05:01:54.312Z,1.42
2023-01-20T05:06:58.932Z,1.58
2023-01-20T05:12:02.087Z,1.42
2023-01-20T05:17:05.207Z,1.33
2023-01-20T05:22:09.779Z,1.50
2023-01-20T05:27:12.912Z,1.30
2023-01-20T05:32:16.020Z,1.52
2023-01-20T05:37:20.591Z,1.33
2023-01-20T05:42:24.025Z,1.60
2023-01-20T05:47:27.196Z,1.15
2023-01-20T05:52:31.724Z,1.88
2023-01-20T05:57:35.015Z,1.40
2023-01-20T06:02:38.331Z,1.73
2023-01-20T06:07:43.598Z,1.17
2023-01-20T06:12:53.254Z,1.30
2023-01-20T06:17:56.840Z,1.65
2023-01-20T06:23:01.365Z,1.63
2023-01-20T06:28:04.540Z,1.58
2023-01-20T06:33:10.866Z,1.55
2023-01-20T06:38:15.480Z,1.88
2023-01-20T06:43:18.635Z,1.58
2023-01-20T06:48:22.106Z,1.60
2023-01-20T06:53:26.660Z,1.60
2023-01-20T06:58:31.999Z,1.35
2023-01-20T07:03:35.185Z,1.63
2023-01-20T07:08:39.717Z,1.33
2023-01-20T07:13:42.987Z,0.90
2023-01-20T07:18:49.467Z,1.30
2023-01-20T07:23:54.029Z,1.15
2023-01-20T07:28:59.264Z,1.30
2023-01-20T07:34:02.370Z,1.25
2023-01-20T07:39:06.964Z,1.27
2023-01-20T07:44:10.904Z,1.25
2023-01-20T07:49:14.168Z,1.25
2023-01-20T07:54:18.729Z,1.33
2023-01-20T07:59:21.854Z,1.17
2023-01-20T08:04:25.122Z,1.40
2023-01-20T08:09:29.971Z,1.10
2023-01-20T08:14:33.095Z,1.27
2023-01-20T08:19:36.252Z,1.60
2023-01-20T08:24:40.813Z,1.30
2023-01-20T08:29:44.022Z,1.80
2023-01-20T08:34:47.315Z,1.70
2023-01-20T08:39:51.876Z,1.95
2023-01-20T08:44:55.095Z,1.65
2023-01-20T08:49:58.248Z,1.50
2023-01-20T08:55:02.813Z,1.58
2023-01-20T09:00:09.324Z,1.63
2023-01-20T09:05:14.300Z,1.42
2023-01-20T09:10:19.955Z,1.63
2023-01-20T09:15:25.459Z,1.80
2023-01-20T09:20:30.409Z,1.52
2023-01-20T09:25:34.919Z,1.48
2023-01-20T09:30:38.047Z,1.55
2023-01-20T09:35:41.261Z,2.28
2023-01-20T09:41:12.278Z,1.55
2023-01-20T09:46:22.941Z,1.48
2023-01-20T09:51:50.755Z,1.58
2023-01-20T09:56:57.697Z,1.50
2023-01-20T10:02:05.713Z,1.55
2023-01-20T10:07:13.362Z,2.45
2023-01-20T10:12:25.875Z,2.20
2023-01-20T10:17:34.495Z,2.00
2023-01-20T10:22:44.216Z,2.15
2023-01-20T10:27:54.680Z,2.25
2023-01-20T10:33:04.605Z,1.90
2023-01-20T10:38:10.031Z,2.42
2023-01-20T10:43:16.828Z,2.30
2023-01-20T10:48:38.868Z,2.30
2023-01-20T10:53:51.925Z,1.90
2023-01-20T10:58:57.926Z,2.40
2023-01-20T11:04:01.103Z,2.90
2023-01-20T11:09:24.117Z,3.28
2023-01-20T11:14:28.730Z,2.85
2023-01-20T11:19:48.242Z,3.25
2023-01-20T11:24:55.976Z,2.40
2023-01-20T11:30:05.937Z,2.80
2023-01-20T11:35:21.808Z,2.70
2023-01-20T11:40:28.224Z,2.20
2023-01-20T11:45:35.619Z,2.42
2023-01-20T11:50:41.155Z,2.65
2023-01-20T11:55:49.936Z,3.80
2023-01-20T12:01:02.172Z,2.90
2023-01-20T12:06:14.434Z,3.05
2023-01-20T12:11:22.876Z,3.67
2023-01-20T12:16:33.335Z,3.60
2023-01-20T12:21:42.445Z,3.17
2023-01-20T12:26:45.662Z,3.33
2023-01-20T12:31:51.028Z,3.42
2023-01-20T12:37:09.489Z,4.53
2023-01-20T12:42:31.701Z,4.38
2023-01-20T12:47:49.485Z,3.60
2023-01-20T12:53:17.058Z,3.03
2023-01-20T12:58:32.434Z,3.20
2023-01-20T13:04:05.116Z,2.85
2023-01-20T13:09:22.210Z,2.83
2023-01-20T13:14:32.671Z,2.33
2023-01-20T13:19:40.454Z,2.80
2023-01-20T13:24:47.025Z,3.20
2023-01-20T13:29:57.460Z,3.17
2023-01-20T13:35:03.240Z,3.17
2023-01-20T13:40:43.047Z,3.10
2023-01-20T13:45:46.316Z,2.70
2023-01-20T13:50:52.035Z,2.63
2023-01-20T13:56:02.934Z,2.20
2023-01-20T14:01:08.029Z,2.58
2023-01-20T14:06:24.164Z,3.20
2023-01-20T14:11:29.232Z,3.28
2023-01-20T14:16:40.756Z,2.95
2023-01-20T14:21:45.391Z,2.50
2023-01-20T14:31:51.753Z,2.55
2023-01-20T14:36:57.963Z,2.40
2023-01-20T14:42:02.841Z,2.00
2023-01-20T14:47:06.307Z,2.35
2023-01-20T14:52:21.763Z,3.10
2023-01-20T14:57:27.936Z,2.40
2023-01-20T15:02:33.822Z,2.70
2023-01-20T15:07:38.523Z,2.80
2023-01-20T15:18:22.162Z,3.10
2023-01-20T15:23:32.781Z,3.03
2023-01-20T15:28:39.012Z,2.60
2023-01-20T15:33:42.286Z,3.58
2023-01-20T15:38:47.226Z,4.10
2023-01-20T15:43:52.682Z,3.90
2023-01-20T15:48:55.967Z,4.38
2023-01-20T15:54:00.619Z,4.93
2023-01-20T15:59:04.209Z,4.20
2023-01-20T16:04:07.507Z,4.03
2023-01-20T16:09:20.013Z,4.13
2023-01-20T16:14:23.368Z,2.67
2023-01-20T16:19:26.660Z,3.63
2023-01-20T16:24:31.332Z,3.00
2023-01-20T16:34:37.605Z,2.72
2023-01-20T16:39:42.184Z,2.30
2023-01-20T16:44:45.424Z,2.35
2023-01-20T16:49:48.692Z,2.50
2023-01-20T16:54:53.376Z,2.90
2023-01-20T16:59:56.694Z,2.50
2023-01-20T17:04:59.889Z,3.35
2023-01-20T17:10:04.762Z,2.70
2023-01-20T17:15:08.966Z,3.38
2023-01-20T17:20:12.581Z,3.60
2023-01-20T17:25:18.410Z,4.45
2023-01-20T17:30:23.411Z,4.85
2023-01-20T17:35:28.126Z,5.60
2023-01-20T17:40:32.795Z,5.40
2023-01-20T17:45:36.325Z,5.20
2023-01-20T17:50:40.241Z,4.63
2023-01-20T17:55:44.920Z,4.80
2023-01-20T18:00:48.186Z,4.30
2023-01-20T18:05:53.667Z,4.10
2023-01-20T18:11:03.271Z,4.13
2023-01-20T18:16:07.788Z,4.18
2023-01-20T18:21:12.112Z,4.00
2023-01-20T18:26:18.329Z,3.80
2023-01-20T18:31:23.197Z,4.63
2023-01-20T18:41:36.392Z,4.90
2023-01-20T18:46:41.051Z,6.03
2023-01-20T18:51:44.701Z,6.00
2023-01-20T18:56:49.508Z,5.95
2023-01-20T19:06:55.664Z,5.35
2023-01-20T19:12:00.308Z,5.40
2023-01-20T19:17:03.583Z,6.30
2023-01-20T19:22:06.810Z,5.35
2023-01-20T19:27:11.476Z,5.38
2023-01-20T19:32:14.692Z,5.85
2023-01-20T19:37:17.917Z,5.43
2023-01-20T19:42:25.727Z,5.20
2023-01-20T19:47:31.570Z,5.22
2023-01-20T19:52:34.875Z,5.55
2023-01-20T19:57:39.575Z,5.45
2023-01-20T20:02:42.940Z,5.80
2023-01-20T20:07:46.198Z,5.78
2023-01-20T20:12:50.878Z,5.07
2023-01-20T20:17:56.072Z,5.47
2023-01-20T20:22:59.325Z,4.72
2023-01-20T20:28:03.999Z,4.57
2023-01-20T20:33:07.244Z,4.60
2023-01-20T20:38:10.635Z,4.53
2023-01-20T20:43:15.345Z,4.70
2023-01-20T20:48:18.856Z,5.13
2023-01-20T20:53:22.564Z,5.40
2023-01-20T20:58:27.662Z,5.00
2023-01-20T21:03:31.000Z,4.97
2023-01-20T21:08:34.312Z,5.43
2023-01-20T21:13:39.028Z,5.30
2023-01-20T21:18:42.842Z,5.30
2023-01-20T21:23:49.847Z,5.20
2023-01-20T21:28:54.768Z,6.07
2023-01-20T21:39:02.086Z,4.93
2023-01-20T21:44:24.161Z,5.72
2023-01-20T21:49:45.438Z,5.70
2023-01-20T21:54:48.689Z,5.80
2023-01-20T21:59:53.463Z,5.40
2023-01-20T22:04:57.227Z,5.35
2023-01-20T22:10:00.420Z,6.07
2023-01-20T22:15:05.712Z,6.22
2023-01-20T22:20:10.907Z,6.00
2023-01-20T22:25:14.178Z,6.53
2023-01-20T22:30:19.387Z,5.93
2023-01-20T22:35:22.587Z,6.72
2023-01-20T22:40:25.759Z,6.30
2023-01-20T22:45:30.530Z,5.78
2023-01-20T22:50:35.086Z,6.43
2023-01-20T22:55:46.183Z,6.00
2023-01-20T23:01:01.615Z,6.63
2023-01-20T23:06:04.911Z,5.20
2023-01-20T23:11:10.276Z,4.47
2023-01-20T23:16:16.787Z,5.40
2023-01-20T23:21:20.763Z,6.78
2023-01-20T23:26:25.806Z,6.18
2023-01-20T23:31:33.678Z,5.03
2023-01-20T23:36:36.966Z,5.50
2023-01-20T23:41:40.166Z,4.75
2023-01-20T23:46:44.861Z,6.65
2023-01-20T23:51:48.101Z,6.00
2023-01-20T23:56:51.367Z,6.25
